Time;durP1;ratioP1;P1;durP2;ratioP2;P2;SDS_P1;SDS_P2;PMS_P1;PMS_P2;Temp;Humidity;BMP_temperature;BMP_pressure;BME280_temperature;BME280_humidity;BME280_pressure;Samples;Min_cycle;Max_cycle;Signal;HPM_P1;HPM_P2
2022/11/22 00:00:13;;;;;;;;;;;;;;;-147.11;100.00;61570.13;5080365;28;19998;-54
2022/11/22 00:02:38;;;;;;;;;;;;;;;-147.11;100.00;61570.13;5088780;28;20391;-54
2022/11/22 00:05:04;;;;;;;;;;;;;;;-147.11;100.00;61570.13;5089621;28;19912;-54
2022/11/22 00:07:29;;;;;;;;;;;;;;;-147.11;100.00;61570.13;5093002;28;20703;-54
2022/11/22 00:09:54;;;;;;;;;;;;;;;-147.11;100.00;61570.13;5089334;28;19939;-54
2022/11/22 00:12:20;;;;;;;;;;;;;;;-147.11;100.00;61570.13;5085101;28;20413;-54
2022/11/22 00:14:45;;;;;;;;;;;;;;;-147.11;100.00;61570.13;5088618;28;19916;-55
2022/11/22 00:17:10;;;;;;;;;;;;;;;-147.11;100.00;61570.13;5092048;28;19916;-54
2022/11/22 00:19:38;;;;;;;;;;;;;;;-147.11;100.00;61570.13;5086059;28;19916;-53
2022/11/22 00:22:04;;;;;;;;;;;;;;;-147.11;100.00;61570.13;5081467;28;20502;-54
2022/11/22 00:24:29;;;;;;;;;;;;;;;-147.11;100.00;61570.13;5089299;28;19916;-54
2022/11/22 00:26:54;;;;;;;;;;;;;;;-147.11;100.00;61570.13;5087745;28;19967;-55
2022/11/22 00:29:19;;;;;;;;;;;;;;;-147.11;100.00;61570.13;5092385;28;19924;-54
2022/11/22 00:31:45;;;;;;;;;;;;;;;-147.11;100.00;61570.13;5077785;28;19925;-53
2022/11/22 00:34:10;;;;;;;;;;;;;;;-147.11;100.00;61570.13;5071566;28;19916;-54
2022/11/22 00:36:35;;;;;;;;;;;;;;;-147.11;100.00;61570.13;5087215;28;19920;-54
2022/11/22 00:39:01;;;;;;;;;;;;;;;-147.11;100.00;61570.13;5088025;28;19995;-54
2022/11/22 00:41:26;;;;;;;;;;;;;;;-147.11;100.00;61570.13;5087260;28;20041;-54
2022/11/22 00:43:51;;;;;;;;;;;;;;;-147.11;100.00;61570.13;5089892;28;19920;-55
2022/11/22 00:46:16;;;;;;;;;;;;;;;-147.11;100.00;61570.13;5063381;28;19924;-54
2022/11/22 00:48:42;;;;;;;;;;;;;;;-147.11;100.00;61570.13;5079084;28;20469;-53
2022/11/22 00:51:07;;;;;;;;;;;;;;;-147.11;100.00;61570.13;5083881;28;19943;-56
2022/11/22 00:53:32;;;;;;;;;;;;;;;-147.11;100.00;61570.13;5084217;28;19920;-54
2022/11/22 00:55:58;;;;;;;;;;;;;;;-147.11;100.00;61570.13;5081917;28;19928;-53
2022/11/22 00:58:23;;;;;;;;;;;;;;;-147.11;100.00;61570.13;5088632;28;19964;-53
2022/11/22 01:00:49;;;;;;;;;;;;;;;-147.11;100.00;61570.13;5083101;28;19920;-54
2022/11/22 01:03:14;;;;;;;;;;;;;;;-147.11;100.00;61570.13;5085104;28;19922;-55
2022/11/22 01:05:40;;;;;;;;;;;;;;;-147.11;100.00;61570.13;5084590;28;19920;-54
2022/11/22 01:08:05;;;;;;;;;;;;;;;-147.11;100.00;61570.13;5070150;28;19912;-54
2022/11/22 01:10:31;;;;;;;;;;;;;;;-147.11;100.00;61570.13;5083913;28;19935;-57
2022/11/22 01:12:56;;;;;;;;;;;;;;;-147.11;100.00;61570.13;5069885;28;19920;-55
2022/11/22 01:15:22;;;;;;;;;;;;;;;-147.11;100.00;61570.13;5088492;28;19948;-53
2022/11/22 01:17:47;;;;;;;;;;;;;;;-147.11;100.00;61570.13;5086567;28;19916;-54
2022/11/22 01:20:12;;;;;;;;;;;;;;;-147.11;100.00;61570.13;5083221;28;20015;-54
2022/11/22 01:22:38;;;;;;;;;;;;;;;-147.11;100.00;61570.13;5084004;28;19928;-55
2022/11/22 01:25:03;;;;;;;;;;;;;;;-147.11;100.00;61570.13;5086259;28;19942;-54
2022/11/22 01:27:28;;;;;;;;;;;;;;;-147.11;100.00;61570.13;5085887;28;19920;-56
2022/11/22 01:29:54;;;;;;;;;;;;;;;-147.11;100.00;61570.13;5087773;28;20162;-53
2022/11/22 01:32:19;;;;;;;;;;;;;;;-147.11;100.00;61570.13;5086179;28;19929;-54
2022/11/22 01:34:44;;;;;;;;;;;;;;;-147.11;100.00;61570.13;5089837;28;19916;-54
2022/11/22 01:37:09;;;;;;;;;;;;;;;-147.11;100.00;61570.13;5082494;28;20388;-55
2022/11/22 01:39:35;;;;;;;;;;;;;;;-147.11;100.00;61570.13;5086500;28;19916;-54
2022/11/22 01:42:00;;;;;;;;;;;;;;;-147.11;100.00;61570.13;5068339;28;19920;-54
2022/11/22 01:44:27;;;;;;;;;;;;;;;-147.11;100.00;61570.13;5084288;28;19920;-54
2022/11/22 01:47:04;;;;;;;;;;;;;;;-147.11;100.00;61570.13;5076593;28;19961;-54
2022/11/22 01:49:32;;;;;;;;;;;;;;;-147.11;100.00;61570.13;5086324;28;19920;-53
2022/11/22 01:52:16;;;;;;;;;;;;;;;-147.11;100.00;61570.13;5086654;28;19927;-54
2022/11/22 01:54:44;;;;;;;;;;;;;;;-147.11;100.00;61570.13;5065529;28;19924;-54
2022/11/22 01:57:12;;;;;;;;;;;;;;;-147.11;100.00;61570.13;5082111;28;19916;-53
2022/11/22 01:59:40;;;;;;;;;;;;;;;-147.11;100.00;61570.13;5083597;28;20015;-55
2022/11/22 02:02:06;;;;;;;;;;;;;;;-147.11;100.00;61570.13;5084546;28;20395;-56
2022/11/22 02:04:32;;;;;;;;;;;;;;;-147.11;100.00;61570.13;5086726;28;19925;-54
2022/11/22 02:07:03;;;;;;;;;;;;;;;-147.11;100.00;61570.13;5085863;28;19931;-58
2022/11/22 02:09:29;;;;;;;;;;;;;;;-147.11;100.00;61570.13;5081876;28;20013;-54
2022/11/22 02:11:56;;;;;;;;;;;;;;;-147.11;100.00;61570.13;5082144;28;19928;-56
2022/11/22 02:14:24;;;;;;;;;;;;;;;-147.11;100.00;61570.13;5082061;28;19924;-54
2022/11/22 02:16:49;;;;;;;;;;;;;;;-147.11;100.00;61570.13;5067038;28;19998;-54
2022/11/22 02:19:17;;;;;;;;;;;;;;;-147.11;100.00;61570.13;5064118;28;20054;-56
2022/11/22 02:21:47;;;;;;;;;;;;;;;-147.11;100.00;61570.13;5080097;28;19916;-57
2022/11/22 02:24:20;;;;;;;;;;;;;;;-147.11;100.00;61570.13;5079971;28;20018;-55
2022/11/22 02:26:45;;;;;;;;;;;;;;;-147.11;100.00;61570.13;5082025;28;20375;-54
2022/11/22 02:29:11;;;;;;;;;;;;;;;-147.11;100.00;61570.13;5081382;28;19974;-56
2022/11/22 02:31:41;;;;;;;;;;;;;;;-147.11;100.00;61570.13;5078956;28;19970;-54
2022/11/22 02:34:07;;;;;;;;;;;;;;;-147.11;100.00;61570.13;5075179;28;20253;-54
2022/11/22 02:36:34;;;;;;;;;;;;;;;-147.11;100.00;61570.13;5065878;28;19938;-55
2022/11/22 02:38:59;;;;;;;;;;;;;;;-147.11;100.00;61570.13;5084420;28;19970;-54
2022/11/22 02:41:25;;;;;;;;;;;;;;;-147.11;100.00;61570.13;5080792;28;19932;-54
2022/11/22 02:43:50;;;;;;;;;;;;;;;-147.11;100.00;61570.13;5079721;28;19934;-55
2022/11/22 02:46:19;;;;;;;;;;;;;;;-147.11;100.00;61570.13;5077933;28;19928;-54
2022/11/22 02:48:45;;;;;;;;;;;;;;;-147.11;100.00;61570.13;5074828;28;19959;-55
2022/11/22 02:51:15;;;;;;;;;;;;;;;-147.11;100.00;61570.13;5082168;28;20010;-57
2022/11/22 02:53:40;;;;;;;;;;;;;;;-147.11;100.00;61570.13;5083509;28;19970;-54
2022/11/22 02:56:06;;;;;;;;;;;;;;;-147.11;100.00;61570.13;5083364;28;19916;-57
2022/11/22 02:58:31;;;;;;;;;;;;;;;-147.11;100.00;61570.13;5084218;28;19920;-54
2022/11/22 03:00:56;;;;;;;;;;;;;;;-147.11;100.00;61570.13;5078920;28;19935;-54
2022/11/22 03:03:22;;;;;;;;;;;;;;;-147.11;100.00;61570.13;5080425;28;20350;-54
2022/11/22 03:05:47;;;;;;;;;;;;;;;-147.11;100.00;61570.13;5079509;28;20054;-53
2022/11/22 03:08:12;;;;;;;;;;;;;;;-147.11;100.00;61570.13;5080337;28;19920;-54
2022/11/22 03:10:38;;;;;;;;;;;;;;;-147.11;100.00;61570.13;5081066;28;20016;-55
2022/11/22 03:13:03;;;;;;;;;;;;;;;-147.11;100.00;61570.13;5082013;28;20074;-54
2022/11/22 03:15:28;;;;;;;;;;;;;;;-147.11;100.00;61570.13;5079385;28;19928;-56
2022/11/22 03:18:01;;;;;;;;;;;;;;;-147.11;100.00;61570.13;5087180;28;19927;-55
2022/11/22 03:20:27;;;;;;;;;;;;;;;-147.11;100.00;61570.13;5080107;28;20462;-54
2022/11/22 03:22:52;;;;;;;;;;;;;;;-147.11;100.00;61570.13;5076914;28;20015;-54
2022/11/22 03:25:17;;;;;;;;;;;;;;;-147.11;100.00;61570.13;5093333;28;20015;-54
2022/11/22 03:27:43;;;;;;;;;;;;;;;-147.11;100.00;61570.13;5084757;28;19925;-56
2022/11/22 03:30:08;;;;;;;;;;;;;;;-147.11;100.00;61570.13;5089177;28;20018;-54
2022/11/22 03:32:34;;;;;;;;;;;;;;;-147.11;100.00;61570.13;5085895;28;19920;-55
2022/11/22 03:34:59;;;;;;;;;;;;;;;-147.11;100.00;61570.13;5082714;28;20019;-54
2022/11/22 03:37:24;;;;;;;;;;;;;;;-147.11;100.00;61570.13;5068189;28;20061;-54
2022/11/22 03:39:49;;;;;;;;;;;;;;;-147.11;100.00;61570.13;5088637;28;20315;-54
2022/11/22 03:42:15;;;;;;;;;;;;;;;-147.11;100.00;61570.13;5085539;28;19924;-54
2022/11/22 03:44:40;;;;;;;;;;;;;;;-147.11;100.00;61570.13;5084241;28;19964;-54
2022/11/22 03:47:05;;;;;;;;;;;;;;;-147.11;100.00;61570.13;5089826;28;19912;-55
2022/11/22 03:49:31;;;;;;;;;;;;;;;-147.11;100.00;61570.13;5087012;28;19923;-55
2022/11/22 03:51:56;;;;;;;;;;;;;;;-147.11;100.00;61570.13;5086494;28;19935;-54
2022/11/22 03:54:21;;;;;;;;;;;;;;;-147.11;100.00;61570.13;5087973;28;19928;-54
2022/11/22 03:56:47;;;;;;;;;;;;;;;-147.11;100.00;61570.13;5087871;28;19966;-53
2022/11/22 03:59:12;;;;;;;;;;;;;;;-147.11;100.00;61570.13;5083663;28;19923;-55
2022/11/22 04:01:37;;;;;;;;;;;;;;;-147.11;100.00;61570.13;5087769;28;19924;-54
2022/11/22 04:04:03;;;;;;;;;;;;;;;-147.11;100.00;61570.13;5084481;28;19920;-55
2022/11/22 04:06:28;;;;;;;;;;;;;;;-147.11;100.00;61570.13;5084024;28;19923;-54
2022/11/22 04:08:53;;;;;;;;;;;;;;;-147.11;100.00;61570.13;5084393;28;19928;-54
2022/11/22 04:11:19;;;;;;;;;;;;;;;-147.11;100.00;61570.13;5089040;28;19920;-56
2022/11/22 04:16:28;;;;;;;;;;;;;;;-147.11;100.00;61570.13;5088021;28;19931;-54
2022/11/22 04:18:53;;;;;;;;;;;;;;;-147.11;100.00;61570.13;5082081;28;19945;-55
2022/11/22 04:21:33;;;;;;;;;;;;;;;-147.11;100.00;61570.13;5081079;28;19928;-55
2022/11/22 04:26:50;;;;;;;;;;;;;;;-147.11;100.00;61570.13;5085883;28;19923;-55
2022/11/22 04:29:16;;;;;;;;;;;;;;;-147.11;100.00;61570.13;5079958;28;19924;-54
2022/11/22 04:34:25;;;;;;;;;;;;;;;-147.11;100.00;61570.13;5079774;28;19927;-53
2022/11/22 04:36:50;;;;;;;;;;;;;;;0.42;72.05;100149.00;5088724;28;19928;-53
2022/11/22 04:39:16;;;;;;;;;;;;;;;0.45;72.25;100148.94;5081860;28;19924;-55
2022/11/22 04:41:41;;;;;;;;;;;;;;;0.47;72.22;100147.16;5085593;28;19936;-55
2022/11/22 04:46:51;;;;;;;;;;;;;;;0.36;72.57;100138.81;5084327;28;19927;-55
2022/11/22 04:49:16;;;;;;;;;;;;;;;0.38;72.88;100132.72;5067716;28;20303;-54
2022/11/22 04:54:25;;;;;;;;;;;;;;;0.44;72.36;100142.06;5082925;28;20069;-54
2022/11/22 04:56:51;;;;;;;;;;;;;;;0.49;72.59;100134.16;5078225;28;20014;-53
2022/11/22 04:59:16;;;;;;;;;;;;;;;0.51;72.22;100135.84;5081208;28;20422;-54
2022/11/22 05:01:41;;;;;;;;;;;;;;;0.58;72.15;100118.41;5088937;28;19916;-54
2022/11/22 05:04:06;;;;;;;;;;;;;;;0.60;71.85;100103.69;5062963;28;19977;-55
2022/11/22 05:06:32;;;;;;;;;;;;;;;0.59;71.72;100100.22;5087174;28;20398;-54
2022/11/22 05:08:57;;;;;;;;;;;;;;;0.51;72.26;100101.31;5081832;28;19924;-54
2022/11/22 05:11:22;;;;;;;;;;;;;;;0.53;71.70;100102.97;5084215;28;19924;-56
2022/11/22 05:13:48;;;;;;;;;;;;;;;0.52;72.05;100085.75;5081378;28;20291;-54
2022/11/22 05:16:16;;;;;;;;;;;;;;;0.51;72.24;100102.19;5082827;28;19916;-57
2022/11/22 05:18:41;;;;;;;;;;;;;;;0.48;72.14;100102.25;5079973;28;20449;-54
2022/11/22 05:21:11;;;;;;;;;;;;;;;0.47;72.05;100103.16;5073748;28;19977;-54
2022/11/22 05:23:54;;;;;;;;;;;;;;;0.46;72.26;100104.03;5077466;28;19924;-56
2022/11/22 05:26:20;;;;;;;;;;;;;;;0.48;72.31;100101.41;5069218;28;19928;-54
2022/11/22 05:28:45;;;;;;;;;;;;;;;0.48;72.40;100104.84;5079220;28;19936;-54
2022/11/22 05:31:15;;;;;;;;;;;;;;;0.49;72.30;100093.59;5068973;28;19967;-56
2022/11/22 05:33:42;;;;;;;;;;;;;;;0.51;72.71;100102.19;5060026;28;20383;-54
2022/11/22 05:36:07;;;;;;;;;;;;;;;0.53;72.12;100100.38;5081833;28;20554;-54
2022/11/22 05:38:37;;;;;;;;;;;;;;;0.53;72.90;100105.56;5076954;28;19916;-55
2022/11/22 05:41:03;;;;;;;;;;;;;;;0.59;72.63;100102.81;5063354;28;20456;-54
2022/11/22 05:43:28;;;;;;;;;;;;;;;0.59;72.82;100101.97;5087879;28;19962;-57
2022/11/22 05:45:54;;;;;;;;;;;;;;;0.62;72.53;100090.69;5083155;28;19952;-55
2022/11/22 05:48:19;;;;;;;;;;;;;;;0.59;72.64;100108.00;5075962;28;19932;-55
2022/11/22 05:50:44;;;;;;;;;;;;;;;0.62;72.79;100119.16;5079895;28;19920;-55
2022/11/22 05:53:09;;;;;;;;;;;;;;;0.64;72.19;100109.63;5073346;28;19927;-56
2022/11/22 05:55:35;;;;;;;;;;;;;;;0.60;71.93;100104.53;5083770;28;19943;-54
2022/11/22 05:58:00;;;;;;;;;;;;;;;0.57;72.35;100107.19;5082969;28;19935;-54
2022/11/22 06:00:26;;;;;;;;;;;;;;;0.58;72.22;100101.13;5077773;28;19927;-54
2022/11/22 06:02:51;;;;;;;;;;;;;;;0.63;72.18;100119.13;5075177;28;19920;-54
2022/11/22 06:05:17;;;;;;;;;;;;;;;0.64;72.13;100107.03;5086095;28;19965;-58
2022/11/22 06:07:42;;;;;;;;;;;;;;;0.65;71.95;100125.09;5080763;28;19927;-54
2022/11/22 06:10:07;;;;;;;;;;;;;;;0.63;72.00;100129.47;5084183;28;19916;-55
2022/11/22 06:12:33;;;;;;;;;;;;;;;0.66;72.12;100131.16;5086007;28;20391;-56
2022/11/22 06:14:58;;;;;;;;;;;;;;;0.65;71.95;100126.84;5084265;28;20442;-56
2022/11/22 06:17:23;;;;;;;;;;;;;;;0.65;71.98;100137.22;5088310;28;19998;-54
2022/11/22 06:19:49;;;;;;;;;;;;;;;0.62;72.40;100143.31;5087900;28;19921;-55
2022/11/22 06:22:14;;;;;;;;;;;;;;;0.63;72.37;100139.81;5083917;28;19923;-54
2022/11/22 06:24:41;;;;;;;;;;;;;;;0.68;71.83;100147.50;5063849;28;19951;-54
2022/11/22 06:27:06;;;;;;;;;;;;;;;0.71;72.15;100152.56;5080430;28;19929;-56
2022/11/22 06:29:32;;;;;;;;;;;;;;;0.63;71.87;100145.00;5086291;28;19924;-55
2022/11/22 06:31:57;;;;;;;;;;;;;;;0.61;72.52;100144.19;5084218;28;19931;-55
2022/11/22 06:34:23;;;;;;;;;;;;;;;0.58;72.50;100139.13;5080865;28;19920;-54
2022/11/22 06:36:48;;;;;;;;;;;;;;;0.61;72.70;100144.19;5085080;28;19920;-54
2022/11/22 06:39:13;;;;;;;;;;;;;;;0.60;72.53;100148.53;5088861;28;19978;-53
2022/11/22 06:41:39;;;;;;;;;;;;;;;0.59;72.16;100139.06;5084545;28;19970;-54
2022/11/22 06:44:05;;;;;;;;;;;;;;;0.64;72.60;100143.28;5086559;28;19934;-55
2022/11/22 06:46:30;;;;;;;;;;;;;;;0.69;72.36;100133.63;5088006;28;19916;-54
2022/11/22 06:48:55;;;;;;;;;;;;;;;0.67;72.56;100138.03;5092878;28;20394;-54
2022/11/22 06:51:22;;;;;;;;;;;;;;;0.68;72.64;100134.56;5089278;28;20372;-54
2022/11/22 06:53:48;;;;;;;;;;;;;;;0.68;72.17;100150.94;5099976;28;20407;-54
2022/11/22 06:56:24;;;;;;;;;;;;;;;0.65;72.56;100145.81;5093918;28;20440;-58
2022/11/22 06:58:50;;;;;;;;;;;;;;;0.67;72.25;100146.63;5090281;28;19959;-55
2022/11/22 07:01:20;;;;;;;;;;;;;;;0.66;72.71;100141.50;5091841;28;19920;-54
2022/11/22 07:03:46;;;;;;;;;;;;;;;0.60;72.91;100151.13;5088426;28;19920;-55
2022/11/22 07:06:12;;;;;;;;;;;;;;;0.62;72.58;100155.41;5091584;28;19916;-53
2022/11/22 07:08:38;;;;;;;;;;;;;;;0.62;72.68;100155.41;5091270;28;19912;-53
2022/11/22 07:11:07;;;;;;;;;;;;;;;0.59;73.06;100149.44;5092757;28;19916;-54
2022/11/22 07:13:33;;;;;;;;;;;;;;;0.60;72.93;100143.38;5094793;28;20319;-53
2022/11/22 07:16:00;;;;;;;;;;;;;;;0.56;72.85;100148.66;5096614;28;19916;-53
2022/11/22 07:18:26;;;;;;;;;;;;;;;0.60;72.63;100153.72;5096748;22;20398;-58
2022/11/22 07:20:51;;;;;;;;;;;;;;;0.63;72.59;100141.59;5064863;28;19934;-56
2022/11/22 07:23:17;;;;;;;;;;;;;;;0.60;72.67;100143.38;5071321;28;19924;-60
2022/11/22 07:25:42;;;;;;;;;;;;;;;0.65;72.63;100143.22;5069097;28;19935;-57
2022/11/22 07:28:08;;;;;;;;;;;;;;;0.72;72.52;100151.69;5073757;28;19920;-56
2022/11/22 07:30:33;;;;;;;;;;;;;;;0.72;72.48;100146.50;5087771;28;19925;-59
2022/11/22 07:32:58;;;;;;;;;;;;;;;0.73;72.88;100153.38;5092217;28;20423;-58
2022/11/22 07:35:24;;;;;;;;;;;;;;;0.76;72.24;100161.09;5088204;28;19920;-55
2022/11/22 07:37:49;;;;;;;;;;;;;;;0.79;72.64;100157.56;5089441;28;19985;-56
2022/11/22 07:40:14;;;;;;;;;;;;;;;0.79;72.23;100153.25;5080943;28;20692;-58
2022/11/22 07:42:40;;;;;;;;;;;;;;;0.78;72.60;100154.13;5083408;28;19930;-58
2022/11/22 07:45:05;;;;;;;;;;;;;;;0.79;72.46;100155.84;5072409;28;19927;-58
2022/11/22 07:47:31;;;;;;;;;;;;;;;0.80;72.74;100160.13;5090225;28;19916;-54
2022/11/22 07:49:56;;;;;;;;;;;;;;;0.82;72.61;100167.84;5085378;28;19932;-60
2022/11/22 07:52:21;;;;;;;;;;;;;;;0.85;72.92;100168.59;5084195;28;19929;-57
2022/11/22 07:54:46;;;;;;;;;;;;;;;0.85;73.17;100163.41;5084394;28;19924;-58
2022/11/22 07:57:12;;;;;;;;;;;;;;;0.87;73.02;100166.00;5072577;28;19931;-57
2022/11/22 07:59:37;;;;;;;;;;;;;;;0.91;72.91;100163.25;5085384;28;20425;-57
2022/11/22 08:02:02;;;;;;;;;;;;;;;0.94;72.78;100158.91;5086104;28;19948;-57
2022/11/22 08:04:27;;;;;;;;;;;;;;;0.99;72.29;100165.66;5090993;28;19916;-61
2022/11/22 08:06:53;;;;;;;;;;;;;;;0.98;72.32;100160.53;5088027;28;19923;-59
2022/11/22 08:09:18;;;;;;;;;;;;;;;0.95;72.40;100164.03;5082993;28;20011;-59
2022/11/22 08:11:43;;;;;;;;;;;;;;;0.98;72.48;100168.28;5086701;28;20287;-58
2022/11/22 08:14:09;;;;;;;;;;;;;;;0.98;72.40;100168.28;5083417;28;19974;-58
2022/11/22 08:16:35;;;;;;;;;;;;;;;0.98;72.58;100158.75;5064479;28;19916;-58
2022/11/22 08:19:00;;;;;;;;;;;;;;;0.99;72.04;100150.09;5088709;28;19916;-58
2022/11/22 08:21:25;;;;;;;;;;;;;;;1.01;72.41;100163.88;5086135;28;20470;-58
2022/11/22 08:23:56;;;;;;;;;;;;;;;1.01;72.20;100160.41;5087782;28;20379;-59
2022/11/22 08:26:21;;;;;;;;;;;;;;;1.03;71.83;100161.22;5086970;28;19916;-56
2022/11/22 08:28:46;;;;;;;;;;;;;;;1.03;71.95;100161.22;5092187;28;19973;-58
2022/11/22 08:31:13;;;;;;;;;;;;;;;1.06;71.75;100154.22;5091081;28;20015;-59
2022/11/22 08:33:39;;;;;;;;;;;;;;;1.12;71.97;100149.75;5088756;28;19916;-57
2022/11/22 08:36:05;;;;;;;;;;;;;;;1.10;71.82;100160.19;5086206;28;19916;-57
2022/11/22 08:38:30;;;;;;;;;;;;;;;1.13;71.47;100147.16;5092912;28;19916;-57
2022/11/22 08:40:55;;;;;;;;;;;;;;;1.18;71.40;100147.00;5085319;28;19923;-58
2022/11/22 08:43:21;;;;;;;;;;;;;;;1.20;70.86;100142.63;5088585;28;19935;-57
2022/11/22 08:45:56;;;;;;;;;;;;;;;1.14;71.63;100137.63;5075034;28;19981;-63
2022/11/22 08:48:22;;;;;;;;;;;;;;;1.15;71.53;100127.19;5077525;28;20031;-63
2022/11/22 08:50:54;;;;;;;;;;;;;;;1.21;71.32;100129.63;5079706;28;20016;-57
2022/11/22 08:53:20;;;;;;;;;;;;;;;1.25;71.37;100130.38;5085188;28;19912;-58
2022/11/22 08:55:45;;;;;;;;;;;;;;;1.27;71.37;100125.16;5087218;28;19962;-58
2022/11/22 08:58:10;;;;;;;;;;;;;;;1.28;71.25;100119.09;5084297;28;20513;-59
2022/11/22 09:00:36;;;;;;;;;;;;;;;1.28;71.28;100122.50;5087761;28;19920;-58
2022/11/22 09:03:01;;;;;;;;;;;;;;;1.31;71.39;100124.16;5085507;28;19928;-58
2022/11/22 09:05:27;;;;;;;;;;;;;;;1.41;71.24;100128.19;5083616;28;19976;-55
2022/11/22 09:07:52;;;;;;;;;;;;;;;1.46;71.14;100121.09;5078509;28;19935;-59
2022/11/22 09:10:17;;;;;;;;;;;;;;;1.50;71.02;100116.69;5080056;28;19939;-54
2022/11/22 09:12:43;;;;;;;;;;;;;;;1.46;70.82;100115.91;5082033;28;19920;-54
2022/11/22 09:15:09;;;;;;;;;;;;;;;1.46;70.94;100102.97;5080647;28;19916;-54
2022/11/22 09:17:35;;;;;;;;;;;;;;;1.49;70.82;100109.81;5086768;28;19917;-56
2022/11/22 09:20:00;;;;;;;;;;;;;;;1.52;71.00;100107.97;5079670;28;20468;-54
2022/11/22 09:22:25;;;;;;;;;;;;;;;1.55;70.81;100096.66;5082433;28;19924;-54
2022/11/22 09:24:51;;;;;;;;;;;;;;;1.60;70.74;100093.91;5088159;28;19935;-55
2022/11/22 09:27:17;;;;;;;;;;;;;;;1.65;70.60;100092.03;5083992;28;20011;-55
2022/11/22 09:29:42;;;;;;;;;;;;;;;1.68;70.37;100081.56;5091589;28;20010;-58
2022/11/22 09:32:08;;;;;;;;;;;;;;;1.66;70.19;100085.94;5071539;28;20019;-54
2022/11/22 09:34:33;;;;;;;;;;;;;;;1.66;70.21;100088.53;5085002;28;20014;-54
2022/11/22 09:36:59;;;;;;;;;;;;;;;1.65;70.27;100097.22;5083638;28;19975;-59
2022/11/22 09:39:24;;;;;;;;;;;;;;;1.65;70.27;100092.03;5084866;28;20286;-54
2022/11/22 09:41:59;;;;;;;;;;;;;;;1.68;70.15;100094.53;5084303;28;19955;-54
2022/11/22 09:44:41;;;;;;;;;;;;;;;1.61;69.99;100096.47;5086216;28;20013;-54
2022/11/22 09:47:09;;;;;;;;;;;;;;;1.62;69.88;100098.16;5084267;28;20017;-54
2022/11/22 09:49:49;;;;;;;;;;;;;;;1.61;69.94;100104.25;5089952;28;19951;-54
2022/11/22 09:52:18;;;;;;;;;;;;;;;1.61;69.92;100118.94;5086203;28;20440;-54
2022/11/22 09:54:52;;;;;;;;;;;;;;;1.61;69.99;100126.72;5086481;28;19919;-54
2022/11/22 09:57:20;;;;;;;;;;;;;;;1.57;70.36;100132.91;5093112;28;19915;-54
2022/11/22 09:59:48;;;;;;;;;;;;;;;1.59;70.44;100144.94;5085437;28;19920;-57
2022/11/22 10:02:24;;;;;;;;;;;;;;;1.60;70.25;100143.19;5090728;28;19916;-59
2022/11/22 10:04:57;;;;;;;;;;;;;;;1.61;70.16;100152.66;5080722;28;19919;-57
2022/11/22 10:07:26;;;;;;;;;;;;;;;1.64;70.39;100152.56;5087574;28;19916;-56
2022/11/22 10:09:54;;;;;;;;;;;;;;;1.64;70.50;100152.56;5082687;28;19925;-57
2022/11/22 10:12:44;;;;;;;;;;;;;;;1.66;70.38;100149.03;5084854;28;19972;-58
2022/11/22 10:15:12;;;;;;;;;;;;;;;1.66;70.45;100156.81;5084563;28;19958;-59
2022/11/22 10:17:51;;;;;;;;;;;;;;;1.69;70.68;100150.69;5087208;28;19923;-59
2022/11/22 10:20:24;;;;;;;;;;;;;;;1.76;70.37;100141.00;5078023;28;19940;-57
2022/11/22 10:22:49;;;;;;;;;;;;;;;1.77;70.38;100137.50;5082197;28;20282;-57
2022/11/22 10:25:22;;;;;;;;;;;;;;;1.78;70.55;100134.84;5062381;28;19924;-57
2022/11/22 10:27:51;;;;;;;;;;;;;;;1.84;70.00;100128.59;5088973;28;19916;-56
2022/11/22 10:30:21;;;;;;;;;;;;;;;1.85;69.92;100129.47;5082581;28;19916;-56
2022/11/22 10:33:05;;;;;;;;;;;;;;;1.88;70.05;100144.94;5064346;28;19981;-53
2022/11/22 10:35:30;;;;;;;;;;;;;;;1.88;70.06;100152.75;5080817;28;20490;-63
2022/11/22 10:38:14;;;;;;;;;;;;;;;1.88;70.13;100144.94;5081479;28;19947;-55
2022/11/22 10:40:47;;;;;;;;;;;;;;;1.89;69.99;100141.47;5089152;28;19912;-55
2022/11/22 10:43:12;;;;;;;;;;;;;;;1.88;70.20;100153.56;5080463;28;19920;-54
2022/11/22 10:45:44;;;;;;;;;;;;;;;1.89;70.09;100149.25;5085239;28;19965;-54
2022/11/22 10:48:24;;;;;;;;;;;;;;;1.89;70.19;100144.91;5089747;28;19920;-57
2022/11/22 10:51:04;;;;;;;;;;;;;;;1.88;70.42;100140.59;5081529;28;19964;-57
2022/11/22 10:53:48;;;;;;;;;;;;;;;1.90;70.36;100138.81;5083351;28;19916;-57
2022/11/22 10:56:19;;;;;;;;;;;;;;;1.94;70.51;100139.56;5086594;28;19916;-57
2022/11/22 10:58:57;;;;;;;;;;;;;;;1.98;70.41;100141.16;5079244;28;19920;-54
2022/11/22 11:01:37;;;;;;;;;;;;;;;2.03;70.25;100148.78;5090840;28;20385;-58
2022/11/22 11:04:02;;;;;;;;;;;;;;;2.06;70.30;100139.16;5079242;28;19916;-55
2022/11/22 11:06:35;;;;;;;;;;;;;;;2.11;70.12;100150.25;5076936;28;19924;-54
2022/11/22 11:09:13;;;;;;;;;;;;;;;2.13;70.10;100145.00;5081906;28;20011;-58
2022/11/22 11:11:40;;;;;;;;;;;;;;;2.14;69.93;100157.09;5088844;28;19978;-54
2022/11/22 11:14:29;;;;;;;;;;;;;;;2.18;69.84;100157.84;5085852;28;20453;-55
2022/11/22 11:16:54;;;;;;;;;;;;;;;2.17;69.87;100166.53;5070431;28;19920;-54
2022/11/22 11:19:22;;;;;;;;;;;;;;;2.23;69.90;100171.50;5085390;28;19927;-54
2022/11/22 11:21:59;;;;;;;;;;;;;;;2.26;69.67;100168.81;5075636;28;20347;-55
2022/11/22 11:24:27;;;;;;;;;;;;;;;2.24;69.51;100161.09;5083515;28;19938;-59
2022/11/22 11:26:54;;;;;;;;;;;;;;;2.21;69.63;100158.59;5082179;28;20010;-58
2022/11/22 11:29:29;;;;;;;;;;;;;;;2.13;69.77;100161.44;5074716;28;19931;-56
2022/11/22 11:32:08;;;;;;;;;;;;;;;2.07;69.94;100164.22;5088558;28;19920;-59
2022/11/22 11:34:34;;;;;;;;;;;;;;;2.09;69.90;100162.41;5081225;28;19940;-57
2022/11/22 11:37:00;;;;;;;;;;;;;;;2.09;70.01;100164.19;5083701;28;19962;-57
2022/11/22 11:39:30;;;;;;;;;;;;;;;2.11;70.13;100165.81;5083327;28;20015;-59
2022/11/22 11:41:56;;;;;;;;;;;;;;;2.06;70.24;100175.50;5090072;28;20809;-59
2022/11/22 11:44:27;;;;;;;;;;;;;;;2.13;70.01;100179.59;5082811;28;19974;-59
2022/11/22 11:46:53;;;;;;;;;;;;;;;2.09;70.24;100178.00;5083481;28;19920;-59
2022/11/22 11:49:22;;;;;;;;;;;;;;;2.09;70.10;100180.59;5088632;28;20011;-57
2022/11/22 11:52:03;;;;;;;;;;;;;;;2.13;70.03;100177.00;5087698;28;19916;-59
2022/11/22 11:54:38;;;;;;;;;;;;;;;2.17;70.14;100169.97;5056916;28;19926;-58
2022/11/22 11:57:04;;;;;;;;;;;;;;;2.21;70.14;100170.72;5076710;28;19913;-59
2022/11/22 11:59:38;;;;;;;;;;;;;;;2.21;70.25;100158.59;5081870;28;20265;-58
2022/11/22 12:02:18;;;;;;;;;;;;;;;2.24;70.15;100152.44;5082878;28;20286;-58
2022/11/22 12:04:58;;;;;;;;;;;;;;;2.25;70.38;100167.13;5093422;28;19912;-60
2022/11/22 12:07:32;;;;;;;;;;;;;;;2.24;70.23;100175.81;5092603;28;19938;-59
2022/11/22 12:09:58;;;;;;;;;;;;;;;2.25;70.18;100169.72;5087381;28;20389;-59
2022/11/22 12:12:29;;;;;;;;;;;;;;;2.25;70.26;100177.50;5085520;28;20006;-57
2022/11/22 12:15:09;;;;;;;;;;;;;;;2.24;70.54;100173.22;5081683;28;19924;-58
2022/11/22 12:17:40;;;;;;;;;;;;;;;2.23;70.54;100176.69;5091221;28;19935;-59
2022/11/22 12:20:10;;;;;;;;;;;;;;;2.21;70.49;100163.78;5073899;28;20050;-57
2022/11/22 12:22:54;;;;;;;;;;;;;;;2.22;70.66;100162.03;5090966;28;19922;-60
2022/11/22 12:25:29;;;;;;;;;;;;;;;2.22;70.78;100160.28;5069108;28;19916;-56
2022/11/22 12:27:55;;;;;;;;;;;;;;;2.25;71.03;100160.19;5080227;28;19990;-54
2022/11/22 12:30:21;;;;;;;;;;;;;;;2.31;70.98;100148.75;5085723;28;20003;-57
2022/11/22 12:33:07;;;;;;;;;;;;;;;2.30;70.94;100152.25;5081531;28;19959;-60
2022/11/22 12:35:39;;;;;;;;;;;;;;;2.34;70.71;100143.47;5084900;28;20035;-59
2022/11/22 12:38:13;;;;;;;;;;;;;;;2.33;70.64;100141.78;5064081;28;20082;-56
2022/11/22 12:40:40;;;;;;;;;;;;;;;2.33;70.81;100139.19;5085670;28;19920;-59
2022/11/22 12:43:22;;;;;;;;;;;;;;;2.29;70.80;100128.03;5079849;28;20341;-59
2022/11/22 12:45:50;;;;;;;;;;;;;;;2.29;70.89;100132.38;5084966;28;19973;-58
2022/11/22 12:48:28;;;;;;;;;;;;;;;2.27;71.00;100127.22;5091530;28;19912;-60
2022/11/22 12:50:56;;;;;;;;;;;;;;;2.30;70.91;100136.69;5085357;28;19947;-59